sensor_id;sensor_type;location;lat;lon;timestamp;P1;durP1;ratioP1;P2;durP2;ratioP2
9420;SDS011;4749;51.398;5.466;2022-10-22T00:00:56;5.37;;;3.47;;
9420;SDS011;4749;51.398;5.466;2022-10-22T00:03:23;6.90;;;3.60;;
9420;SDS011;4749;51.398;5.466;2022-10-22T00:05:50;4.57;;;3.43;;
9420;SDS011;4749;51.398;5.466;2022-10-22T00:08:18;6.93;;;3.27;;
9420;SDS011;4749;51.398;5.466;2022-10-22T00:10:45;7.87;;;3.67;;
9420;SDS011;4749;51.398;5.466;2022-10-22T00:13:12;7.67;;;3.80;;
9420;SDS011;4749;51.398;5.466;2022-10-22T00:15:40;6.00;;;3.47;;
9420;SDS011;4749;51.398;5.466;2022-10-22T00:18:07;5.77;;;3.87;;
9420;SDS011;4749;51.398;5.466;2022-10-22T00:20:34;7.50;;;3.97;;
9420;SDS011;4749;51.398;5.466;2022-10-22T00:23:01;8.32;;;4.45;;
9420;SDS011;4749;51.398;5.466;2022-10-22T00:25:28;5.60;;;3.57;;
9420;SDS011;4749;51.398;5.466;2022-10-22T00:27:56;8.50;;;4.20;;
9420;SDS011;4749;51.398;5.466;2022-10-22T00:30:23;5.67;;;4.07;;
9420;SDS011;4749;51.398;5.466;2022-10-22T00:32:50;9.13;;;5.07;;
9420;SDS011;4749;51.398;5.466;2022-10-22T00:35:17;7.57;;;3.70;;
9420;SDS011;4749;51.398;5.466;2022-10-22T00:37:44;8.10;;;4.03;;
9420;SDS011;4749;51.398;5.466;2022-10-22T00:40:12;8.67;;;3.67;;
9420;SDS011;4749;51.398;5.466;2022-10-22T00:42:39;11.63;;;4.40;;
9420;SDS011;4749;51.398;5.466;2022-10-22T00:47:45;8.27;;;4.57;;
9420;SDS011;4749;51.398;5.466;2022-10-22T00:50:28;8.17;;;4.97;;
9420;SDS011;4749;51.398;5.466;2022-10-22T00:53:00;5.93;;;4.77;;
9420;SDS011;4749;51.398;5.466;2022-10-22T00:55:30;8.57;;;5.10;;
9420;SDS011;4749;51.398;5.466;2022-10-22T00:57:58;8.33;;;4.70;;
9420;SDS011;4749;51.398;5.466;2022-10-22T01:00:27;12.27;;;5.30;;
9420;SDS011;4749;51.398;5.466;2022-10-22T01:02:54;10.90;;;5.37;;
9420;SDS011;4749;51.398;5.466;2022-10-22T01:05:28;8.30;;;5.80;;
9420;SDS011;4749;51.398;5.466;2022-10-22T01:07:58;10.77;;;5.10;;
9420;SDS011;4749;51.398;5.466;2022-10-22T01:10:33;12.60;;;4.97;;
9420;SDS011;4749;51.398;5.466;2022-10-22T01:16:05;10.37;;;5.90;;
9420;SDS011;4749;51.398;5.466;2022-10-22T01:21:38;12.53;;;6.30;;
9420;SDS011;4749;51.398;5.466;2022-10-22T01:29:33;11.73;;;6.27;;
9420;SDS011;4749;51.398;5.466;2022-10-22T01:32:09;12.47;;;5.60;;
9420;SDS011;4749;51.398;5.466;2022-10-22T01:34:43;10.97;;;5.73;;
9420;SDS011;4749;51.398;5.466;2022-10-22T01:37:16;10.13;;;5.70;;
9420;SDS011;4749;51.398;5.466;2022-10-22T01:39:46;17.60;;;6.37;;
9420;SDS011;4749;51.398;5.466;2022-10-22T01:42:15;10.52;;;5.70;;
9420;SDS011;4749;51.398;5.466;2022-10-22T01:44:42;10.43;;;5.47;;
9420;SDS011;4749;51.398;5.466;2022-10-22T01:58:44;12.90;;;6.07;;
9420;SDS011;4749;51.398;5.466;2022-10-22T02:07:05;12.93;;;6.70;;
9420;SDS011;4749;51.398;5.466;2022-10-22T02:09:35;11.93;;;5.80;;
9420;SDS011;4749;51.398;5.466;2022-10-22T02:12:05;10.93;;;5.87;;
9420;SDS011;4749;51.398;5.466;2022-10-22T02:14:35;11.87;;;6.23;;
9420;SDS011;4749;51.398;5.466;2022-10-22T02:17:07;9.73;;;5.87;;
9420;SDS011;4749;51.398;5.466;2022-10-22T02:19:43;11.00;;;6.40;;
9420;SDS011;4749;51.398;5.466;2022-10-22T02:22:26;9.93;;;6.27;;
9420;SDS011;4749;51.398;5.466;2022-10-22T02:24:55;12.57;;;6.13;;
9420;SDS011;4749;51.398;5.466;2022-10-22T02:30:04;13.73;;;6.00;;
9420;SDS011;4749;51.398;5.466;2022-10-22T02:32:39;14.97;;;6.53;;
9420;SDS011;4749;51.398;5.466;2022-10-22T02:35:27;12.37;;;5.47;;
9420;SDS011;4749;51.398;5.466;2022-10-22T02:37:56;11.83;;;7.17;;
9420;SDS011;4749;51.398;5.466;2022-10-22T02:40:25;12.67;;;6.20;;
9420;SDS011;4749;51.398;5.466;2022-10-22T02:42:55;11.60;;;5.53;;
9420;SDS011;4749;51.398;5.466;2022-10-22T02:45:22;10.10;;;5.30;;
9420;SDS011;4749;51.398;5.466;2022-10-22T02:47:50;10.73;;;5.53;;
9420;SDS011;4749;51.398;5.466;2022-10-22T02:50:18;9.53;;;5.10;;
9420;SDS011;4749;51.398;5.466;2022-10-22T02:52:45;8.53;;;5.57;;
9420;SDS011;4749;51.398;5.466;2022-10-22T02:55:12;11.07;;;5.13;;
9420;SDS011;4749;51.398;5.466;2022-10-22T02:57:39;10.60;;;5.70;;
9420;SDS011;4749;51.398;5.466;2022-10-22T03:00:08;7.10;;;5.40;;
9420;SDS011;4749;51.398;5.466;2022-10-22T03:02:36;13.43;;;5.57;;
9420;SDS011;4749;51.398;5.466;2022-10-22T03:05:04;8.63;;;4.93;;
9420;SDS011;4749;51.398;5.466;2022-10-22T03:07:32;10.80;;;5.07;;
9420;SDS011;4749;51.398;5.466;2022-10-22T03:09:59;9.43;;;5.90;;
9420;SDS011;4749;51.398;5.466;2022-10-22T03:12:26;9.87;;;5.00;;
9420;SDS011;4749;51.398;5.466;2022-10-22T03:14:53;14.90;;;5.87;;
9420;SDS011;4749;51.398;5.466;2022-10-22T03:17:21;10.07;;;5.13;;
9420;SDS011;4749;51.398;5.466;2022-10-22T03:19:48;12.40;;;5.20;;
9420;SDS011;4749;51.398;5.466;2022-10-22T03:22:28;13.67;;;5.47;;
9420;SDS011;4749;51.398;5.466;2022-10-22T03:24:57;11.37;;;5.43;;
9420;SDS011;4749;51.398;5.466;2022-10-22T03:27:30;13.60;;;6.23;;
9420;SDS011;4749;51.398;5.466;2022-10-22T03:29:56;11.50;;;5.70;;
9420;SDS011;4749;51.398;5.466;2022-10-22T03:32:24;11.53;;;6.10;;
9420;SDS011;4749;51.398;5.466;2022-10-22T03:34:52;13.17;;;5.93;;
9420;SDS011;4749;51.398;5.466;2022-10-22T03:37:19;10.07;;;5.07;;
9420;SDS011;4749;51.398;5.466;2022-10-22T03:39:46;7.40;;;5.17;;
9420;SDS011;4749;51.398;5.466;2022-10-22T03:42:14;10.40;;;5.10;;
9420;SDS011;4749;51.398;5.466;2022-10-22T03:44:42;12.20;;;5.87;;
9420;SDS011;4749;51.398;5.466;2022-10-22T03:47:09;10.90;;;5.30;;
9420;SDS011;4749;51.398;5.466;2022-10-22T03:49:37;10.43;;;4.93;;
9420;SDS011;4749;51.398;5.466;2022-10-22T03:52:08;11.97;;;5.20;;
9420;SDS011;4749;51.398;5.466;2022-10-22T03:54:38;13.97;;;5.20;;
9420;SDS011;4749;51.398;5.466;2022-10-22T03:57:07;10.53;;;4.83;;
9420;SDS011;4749;51.398;5.466;2022-10-22T03:59:36;14.80;;;4.83;;
9420;SDS011;4749;51.398;5.466;2022-10-22T04:02:06;15.23;;;4.87;;
9420;SDS011;4749;51.398;5.466;2022-10-22T04:04:34;9.30;;;4.90;;
9420;SDS011;4749;51.398;5.466;2022-10-22T04:07:02;15.10;;;5.00;;
9420;SDS011;4749;51.398;5.466;2022-10-22T04:09:31;9.70;;;4.80;;
9420;SDS011;4749;51.398;5.466;2022-10-22T04:11:59;20.53;;;6.23;;
9420;SDS011;4749;51.398;5.466;2022-10-22T04:14:27;12.47;;;4.90;;
9420;SDS011;4749;51.398;5.466;2022-10-22T04:16:54;10.13;;;4.33;;
9420;SDS011;4749;51.398;5.466;2022-10-22T04:19:21;12.73;;;4.03;;
9420;SDS011;4749;51.398;5.466;2022-10-22T04:21:48;11.57;;;4.47;;
9420;SDS011;4749;51.398;5.466;2022-10-22T04:24:15;13.77;;;4.40;;
9420;SDS011;4749;51.398;5.466;2022-10-22T04:26:45;9.63;;;4.63;;
9420;SDS011;4749;51.398;5.466;2022-10-22T04:29:13;11.40;;;4.27;;
9420;SDS011;4749;51.398;5.466;2022-10-22T04:31:41;11.77;;;5.20;;
9420;SDS011;4749;51.398;5.466;2022-10-22T04:34:09;11.07;;;4.60;;
9420;SDS011;4749;51.398;5.466;2022-10-22T04:36:36;13.63;;;4.47;;
9420;SDS011;4749;51.398;5.466;2022-10-22T04:39:06;12.80;;;4.55;;
9420;SDS011;4749;51.398;5.466;2022-10-22T04:41:37;10.40;;;3.63;;
9420;SDS011;4749;51.398;5.466;2022-10-22T04:44:05;7.33;;;4.00;;
9420;SDS011;4749;51.398;5.466;2022-10-22T04:46:41;9.23;;;4.17;;
9420;SDS011;4749;51.398;5.466;2022-10-22T04:49:08;11.90;;;4.53;;
9420;SDS011;4749;51.398;5.466;2022-10-22T04:51:35;11.30;;;4.43;;
9420;SDS011;4749;51.398;5.466;2022-10-22T04:54:03;13.77;;;4.82;;
9420;SDS011;4749;51.398;5.466;2022-10-22T04:56:32;14.43;;;4.00;;
9420;SDS011;4749;51.398;5.466;2022-10-22T04:59:00;15.00;;;4.25;;
9420;SDS011;4749;51.398;5.466;2022-10-22T05:01:33;8.93;;;3.95;;
9420;SDS011;4749;51.398;5.466;2022-10-22T05:04:12;10.45;;;4.47;;
9420;SDS011;4749;51.398;5.466;2022-10-22T05:06:42;15.63;;;4.45;;
9420;SDS011;4749;51.398;5.466;2022-10-22T05:09:11;9.97;;;4.23;;
9420;SDS011;4749;51.398;5.466;2022-10-22T05:11:44;10.95;;;4.28;;
9420;SDS011;4749;51.398;5.466;2022-10-22T05:14:18;10.07;;;4.03;;
9420;SDS011;4749;51.398;5.466;2022-10-22T05:16:50;11.15;;;4.00;;
9420;SDS011;4749;51.398;5.466;2022-10-22T05:19:23;14.30;;;4.03;;
9420;SDS011;4749;51.398;5.466;2022-10-22T05:21:56;7.78;;;3.58;;
9420;SDS011;4749;51.398;5.466;2022-10-22T05:24:26;13.85;;;4.20;;
9420;SDS011;4749;51.398;5.466;2022-10-22T05:26:55;8.07;;;4.13;;
9420;SDS011;4749;51.398;5.466;2022-10-22T05:29:25;9.68;;;3.60;;
9420;SDS011;4749;51.398;5.466;2022-10-22T05:31:53;10.95;;;3.70;;
9420;SDS011;4749;51.398;5.466;2022-10-22T05:34:20;7.10;;;3.28;;
9420;SDS011;4749;51.398;5.466;2022-10-22T05:36:47;7.63;;;3.75;;
9420;SDS011;4749;51.398;5.466;2022-10-22T05:39:15;9.35;;;3.58;;
9420;SDS011;4749;51.398;5.466;2022-10-22T05:41:42;14.13;;;3.67;;
9420;SDS011;4749;51.398;5.466;2022-10-22T05:44:09;9.45;;;3.70;;
9420;SDS011;4749;51.398;5.466;2022-10-22T05:46:38;11.30;;;4.00;;
9420;SDS011;4749;51.398;5.466;2022-10-22T05:49:06;10.83;;;3.07;;
9420;SDS011;4749;51.398;5.466;2022-10-22T05:51:34;12.45;;;3.33;;
9420;SDS011;4749;51.398;5.466;2022-10-22T05:54:03;7.63;;;2.85;;
9420;SDS011;4749;51.398;5.466;2022-10-22T05:56:33;9.18;;;3.17;;
9420;SDS011;4749;51.398;5.466;2022-10-22T05:59:02;7.80;;;2.85;;
9420;SDS011;4749;51.398;5.466;2022-10-22T06:01:31;10.25;;;3.10;;
9420;SDS011;4749;51.398;5.466;2022-10-22T06:04:01;8.77;;;2.97;;
9420;SDS011;4749;51.398;5.466;2022-10-22T06:06:37;7.25;;;2.67;;
9420;SDS011;4749;51.398;5.466;2022-10-22T06:09:29;14.55;;;3.55;;
9420;SDS011;4749;51.398;5.466;2022-10-22T06:12:06;14.02;;;2.90;;
9420;SDS011;4749;51.398;5.466;2022-10-22T06:14:36;11.60;;;3.00;;
9420;SDS011;4749;51.398;5.466;2022-10-22T06:17:03;10.40;;;3.13;;
9420;SDS011;4749;51.398;5.466;2022-10-22T06:19:30;10.25;;;3.70;;
9420;SDS011;4749;51.398;5.466;2022-10-22T06:22:00;9.63;;;3.40;;
9420;SDS011;4749;51.398;5.466;2022-10-22T06:24:27;12.50;;;3.00;;
9420;SDS011;4749;51.398;5.466;2022-10-22T06:26:54;10.30;;;2.85;;
9420;SDS011;4749;51.398;5.466;2022-10-22T06:29:21;9.77;;;3.60;;
9420;SDS011;4749;51.398;5.466;2022-10-22T06:31:48;11.52;;;3.17;;
9420;SDS011;4749;51.398;5.466;2022-10-22T06:34:16;8.48;;;3.08;;
9420;SDS011;4749;51.398;5.466;2022-10-22T06:36:44;11.73;;;3.27;;
9420;SDS011;4749;51.398;5.466;2022-10-22T06:39:13;8.77;;;2.97;;
9420;SDS011;4749;51.398;5.466;2022-10-22T06:41:42;16.88;;;3.33;;
9420;SDS011;4749;51.398;5.466;2022-10-22T06:44:14;10.93;;;2.78;;
9420;SDS011;4749;51.398;5.466;2022-10-22T06:46:43;10.07;;;3.10;;
9420;SDS011;4749;51.398;5.466;2022-10-22T06:49:11;9.70;;;2.78;;
9420;SDS011;4749;51.398;5.466;2022-10-22T06:51:40;10.90;;;2.78;;
9420;SDS011;4749;51.398;5.466;2022-10-22T06:54:07;11.00;;;3.08;;
9420;SDS011;4749;51.398;5.466;2022-10-22T06:56:35;11.75;;;2.70;;
9420;SDS011;4749;51.398;5.466;2022-10-22T06:59:03;11.20;;;2.63;;
9420;SDS011;4749;51.398;5.466;2022-10-22T07:01:31;8.73;;;2.60;;
9420;SDS011;4749;51.398;5.466;2022-10-22T07:04:01;8.68;;;2.67;;
9420;SDS011;4749;51.398;5.466;2022-10-22T07:06:29;9.10;;;2.58;;
9420;SDS011;4749;51.398;5.466;2022-10-22T07:08:58;10.93;;;3.20;;
9420;SDS011;4749;51.398;5.466;2022-10-22T07:11:27;9.68;;;2.50;;
9420;SDS011;4749;51.398;5.466;2022-10-22T07:14:04;10.43;;;2.60;;
9420;SDS011;4749;51.398;5.466;2022-10-22T07:16:32;6.25;;;2.22;;
9420;SDS011;4749;51.398;5.466;2022-10-22T07:18:59;11.68;;;2.65;;
9420;SDS011;4749;51.398;5.466;2022-10-22T07:21:27;7.15;;;2.80;;
9420;SDS011;4749;51.398;5.466;2022-10-22T07:23:57;9.68;;;2.60;;
9420;SDS011;4749;51.398;5.466;2022-10-22T07:26:25;11.90;;;2.95;;
9420;SDS011;4749;51.398;5.466;2022-10-22T07:28:56;16.48;;;3.25;;
9420;SDS011;4749;51.398;5.466;2022-10-22T07:31:25;12.73;;;3.20;;
9420;SDS011;4749;51.398;5.466;2022-10-22T07:33:52;10.30;;;2.88;;
9420;SDS011;4749;51.398;5.466;2022-10-22T07:36:19;12.10;;;2.50;;
9420;SDS011;4749;51.398;5.466;2022-10-22T07:38:47;8.65;;;2.50;;
9420;SDS011;4749;51.398;5.466;2022-10-22T07:41:18;7.07;;;2.15;;
9420;SDS011;4749;51.398;5.466;2022-10-22T07:43:46;15.38;;;2.47;;
9420;SDS011;4749;51.398;5.466;2022-10-22T07:46:13;6.75;;;2.38;;
9420;SDS011;4749;51.398;5.466;2022-10-22T07:48:40;8.80;;;2.63;;
9420;SDS011;4749;51.398;5.466;2022-10-22T07:51:07;10.85;;;2.53;;
9420;SDS011;4749;51.398;5.466;2022-10-22T07:53:35;12.60;;;3.50;;
9420;SDS011;4749;51.398;5.466;2022-10-22T07:56:02;7.95;;;2.40;;
9420;SDS011;4749;51.398;5.466;2022-10-22T07:58:29;15.18;;;3.30;;
9420;SDS011;4749;51.398;5.466;2022-10-22T08:00:57;10.75;;;3.13;;
9420;SDS011;4749;51.398;5.466;2022-10-22T08:03:27;6.97;;;1.98;;
9420;SDS011;4749;51.398;5.466;2022-10-22T08:05:54;10.65;;;2.80;;
9420;SDS011;4749;51.398;5.466;2022-10-22T08:08:22;7.53;;;2.25;;
9420;SDS011;4749;51.398;5.466;2022-10-22T08:10:55;6.80;;;2.50;;
9420;SDS011;4749;51.398;5.466;2022-10-22T08:13:24;8.48;;;2.30;;
9420;SDS011;4749;51.398;5.466;2022-10-22T08:15:52;10.63;;;2.83;;
9420;SDS011;4749;51.398;5.466;2022-10-22T08:18:23;12.10;;;2.72;;
9420;SDS011;4749;51.398;5.466;2022-10-22T08:20:50;11.77;;;2.35;;
9420;SDS011;4749;51.398;5.466;2022-10-22T08:26:09;8.60;;;2.83;;
9420;SDS011;4749;51.398;5.466;2022-10-22T08:28:37;9.70;;;2.40;;
9420;SDS011;4749;51.398;5.466;2022-10-22T08:31:05;13.52;;;2.40;;
9420;SDS011;4749;51.398;5.466;2022-10-22T08:33:36;10.43;;;2.60;;
9420;SDS011;4749;51.398;5.466;2022-10-22T08:36:04;11.52;;;2.78;;
9420;SDS011;4749;51.398;5.466;2022-10-22T08:38:32;10.60;;;2.42;;
9420;SDS011;4749;51.398;5.466;2022-10-22T08:41:08;12.25;;;2.70;;
9420;SDS011;4749;51.398;5.466;2022-10-22T08:46:43;6.97;;;2.40;;
9420;SDS011;4749;51.398;5.466;2022-10-22T08:49:47;9.90;;;2.65;;
9420;SDS011;4749;51.398;5.466;2022-10-22T08:52:16;10.98;;;2.17;;
9420;SDS011;4749;51.398;5.466;2022-10-22T09:00:35;8.38;;;2.38;;
9420;SDS011;4749;51.398;5.466;2022-10-22T09:03:22;13.50;;;2.83;;
9420;SDS011;4749;51.398;5.466;2022-10-22T09:06:02;10.68;;;3.20;;
9420;SDS011;4749;51.398;5.466;2022-10-22T09:08:40;11.10;;;2.72;;
9420;SDS011;4749;51.398;5.466;2022-10-22T09:13:55;9.02;;;2.50;;
9420;SDS011;4749;51.398;5.466;2022-10-22T09:25:28;13.70;;;2.95;;
9420;SDS011;4749;51.398;5.466;2022-10-22T09:27:58;14.35;;;3.80;;
9420;SDS011;4749;51.398;5.466;2022-10-22T09:30:30;13.80;;;3.45;;
9420;SDS011;4749;51.398;5.466;2022-10-22T09:33:06;12.75;;;3.45;;
9420;SDS011;4749;51.398;5.466;2022-10-22T09:38:30;17.88;;;4.05;;
9420;SDS011;4749;51.398;5.466;2022-10-22T09:41:00;14.75;;;2.65;;
9420;SDS011;4749;51.398;5.466;2022-10-22T09:43:31;14.82;;;3.38;;
9420;SDS011;4749;51.398;5.466;2022-10-22T09:45:59;10.07;;;2.80;;
9420;SDS011;4749;51.398;5.466;2022-10-22T09:48:32;14.57;;;4.00;;
9420;SDS011;4749;51.398;5.466;2022-10-22T09:51:35;11.45;;;3.30;;
9420;SDS011;4749;51.398;5.466;2022-10-22T09:54:15;16.27;;;3.22;;
9420;SDS011;4749;51.398;5.466;2022-10-22T09:57:02;16.30;;;3.33;;
9420;SDS011;4749;51.398;5.466;2022-10-22T09:59:31;10.85;;;2.88;;
9420;SDS011;4749;51.398;5.466;2022-10-22T10:02:12;10.82;;;2.30;;
9420;SDS011;4749;51.398;5.466;2022-10-22T10:05:02;10.90;;;2.33;;
9420;SDS011;4749;51.398;5.466;2022-10-22T10:07:32;10.15;;;2.42;;
9420;SDS011;4749;51.398;5.466;2022-10-22T10:10:01;10.40;;;2.78;;
9420;SDS011;4749;51.398;5.466;2022-10-22T10:12:43;8.02;;;2.33;;
9420;SDS011;4749;51.398;5.466;2022-10-22T10:15:55;11.68;;;2.45;;
9420;SDS011;4749;51.398;5.466;2022-10-22T10:18:53;7.40;;;1.52;;
9420;SDS011;4749;51.398;5.466;2022-10-22T10:21:46;7.30;;;1.67;;
9420;SDS011;4749;51.398;5.466;2022-10-22T10:30:42;9.60;;;2.08;;
9420;SDS011;4749;51.398;5.466;2022-10-22T10:33:47;7.63;;;1.90;;
9420;SDS011;4749;51.398;5.466;2022-10-22T10:36:22;7.15;;;1.83;;
9420;SDS011;4749;51.398;5.466;2022-10-22T10:39:17;8.93;;;2.85;;
9420;SDS011;4749;51.398;5.466;2022-10-22T10:45:08;7.88;;;1.85;;
9420;SDS011;4749;51.398;5.466;2022-10-22T10:50:52;7.53;;;1.75;;
9420;SDS011;4749;51.398;5.466;2022-10-22T10:53:57;3.95;;;1.40;;
9420;SDS011;4749;51.398;5.466;2022-10-22T10:56:36;7.57;;;1.50;;
9420;SDS011;4749;51.398;5.466;2022-10-22T11:06:14;5.18;;;1.80;;
9420;SDS011;4749;51.398;5.466;2022-10-22T11:08:55;7.18;;;1.60;;
9420;SDS011;4749;51.398;5.466;2022-10-22T11:11:33;6.45;;;1.67;;
9420;SDS011;4749;51.398;5.466;2022-10-22T11:14:20;7.15;;;1.88;;
9420;SDS011;4749;51.398;5.466;2022-10-22T11:17:10;14.02;;;1.77;;
9420;SDS011;4749;51.398;5.466;2022-10-22T11:19:42;4.93;;;1.90;;
9420;SDS011;4749;51.398;5.466;2022-10-22T11:22:45;10.18;;;1.90;;
9420;SDS011;4749;51.398;5.466;2022-10-22T11:25:46;8.23;;;1.70;;
9420;SDS011;4749;51.398;5.466;2022-10-22T11:28:26;5.35;;;1.30;;
9420;SDS011;4749;51.398;5.466;2022-10-22T11:31:23;4.93;;;1.50;;
9420;SDS011;4749;51.398;5.466;2022-10-22T11:33:53;5.30;;;1.67;;
9420;SDS011;4749;51.398;5.466;2022-10-22T11:37:00;6.90;;;1.70;;
9420;SDS011;4749;51.398;5.466;2022-10-22T11:39:46;7.72;;;1.83;;
9420;SDS011;4749;51.398;5.466;2022-10-22T11:42:18;8.52;;;1.55;;
9420;SDS011;4749;51.398;5.466;2022-10-22T11:44:59;6.28;;;1.85;;
9420;SDS011;4749;51.398;5.466;2022-10-22T11:47:33;5.50;;;1.50;;
9420;SDS011;4749;51.398;5.466;2022-10-22T11:50:23;8.45;;;1.58;;
9420;SDS011;4749;51.398;5.466;2022-10-22T11:55:46;8.38;;;2.03;;
9420;SDS011;4749;51.398;5.466;2022-10-22T12:03:41;6.85;;;1.95;;
9420;SDS011;4749;51.398;5.466;2022-10-22T12:08:45;9.48;;;1.92;;
9420;SDS011;4749;51.398;5.466;2022-10-22T12:11:19;9.93;;;1.88;;
9420;SDS011;4749;51.398;5.466;2022-10-22T12:19:41;7.40;;;1.95;;
9420;SDS011;4749;51.398;5.466;2022-10-22T12:22:19;9.10;;;1.77;;
9420;SDS011;4749;51.398;5.466;2022-10-22T12:24:59;8.18;;;1.55;;
9420;SDS011;4749;51.398;5.466;2022-10-22T12:27:33;6.07;;;1.77;;
9420;SDS011;4749;51.398;5.466;2022-10-22T12:30:25;10.85;;;1.88;;
9420;SDS011;4749;51.398;5.466;2022-10-22T12:32:56;7.07;;;1.50;;
9420;SDS011;4749;51.398;5.466;2022-10-22T12:35:31;10.82;;;1.80;;
9420;SDS011;4749;51.398;5.466;2022-10-22T12:38:15;4.32;;;1.25;;
9420;SDS011;4749;51.398;5.466;2022-10-22T12:40:45;7.95;;;1.75;;
9420;SDS011;4749;51.398;5.466;2022-10-22T12:43:16;6.50;;;1.60;;
9420;SDS011;4749;51.398;5.466;2022-10-22T12:45:49;8.90;;;1.50;;
9420;SDS011;4749;51.398;5.466;2022-10-22T12:48:23;4.45;;;1.13;;
9420;SDS011;4749;51.398;5.466;2022-10-22T12:51:05;7.55;;;2.08;;
9420;SDS011;4749;51.398;5.466;2022-10-22T12:53:36;4.75;;;1.42;;
9420;SDS011;4749;51.398;5.466;2022-10-22T12:56:22;6.35;;;1.40;;
9420;SDS011;4749;51.398;5.466;2022-10-22T12:58:54;4.85;;;1.33;;
9420;SDS011;4749;51.398;5.466;2022-10-22T13:01:28;5.63;;;1.33;;
9420;SDS011;4749;51.398;5.466;2022-10-22T13:06:42;6.60;;;1.73;;
9420;SDS011;4749;51.398;5.466;2022-10-22T13:09:19;6.95;;;1.15;;
9420;SDS011;4749;51.398;5.466;2022-10-22T13:12:01;8.18;;;2.10;;
9420;SDS011;4749;51.398;5.466;2022-10-22T13:14:32;6.53;;;1.60;;
9420;SDS011;4749;51.398;5.466;2022-10-22T13:22:35;5.28;;;1.58;;
9420;SDS011;4749;51.398;5.466;2022-10-22T13:27:45;5.93;;;1.50;;
9420;SDS011;4749;51.398;5.466;2022-10-22T13:30:31;5.85;;;1.52;;
9420;SDS011;4749;51.398;5.466;2022-10-22T13:33:02;8.43;;;1.42;;
9420;SDS011;4749;51.398;5.466;2022-10-22T13:35:33;5.85;;;1.55;;
9420;SDS011;4749;51.398;5.466;2022-10-22T13:38:25;11.95;;;1.83;;
9420;SDS011;4749;51.398;5.466;2022-10-22T13:40:52;7.85;;;1.80;;
9420;SDS011;4749;51.398;5.466;2022-10-22T13:43:21;5.47;;;1.52;;
9420;SDS011;4749;51.398;5.466;2022-10-22T13:45:51;5.47;;;1.40;;
9420;SDS011;4749;51.398;5.466;2022-10-22T13:48:22;6.30;;;1.42;;
9420;SDS011;4749;51.398;5.466;2022-10-22T13:50:55;5.53;;;1.17;;
9420;SDS011;4749;51.398;5.466;2022-10-22T13:53:25;9.10;;;1.73;;
9420;SDS011;4749;51.398;5.466;2022-10-22T13:55:55;5.68;;;1.75;;
9420;SDS011;4749;51.398;5.466;2022-10-22T13:58:23;9.02;;;1.63;;
9420;SDS011;4749;51.398;5.466;2022-10-22T14:00:51;8.00;;;1.58;;
9420;SDS011;4749;51.398;5.466;2022-10-22T14:03:31;5.70;;;1.73;;
9420;SDS011;4749;51.398;5.466;2022-10-22T14:06:04;6.07;;;1.85;;
9420;SDS011;4749;51.398;5.466;2022-10-22T14:08:39;7.00;;;1.50;;
9420;SDS011;4749;51.398;5.466;2022-10-22T14:11:09;6.13;;;1.58;;
9420;SDS011;4749;51.398;5.466;2022-10-22T14:13:38;4.40;;;1.25;;
9420;SDS011;4749;51.398;5.466;2022-10-22T14:16:06;8.25;;;1.55;;
9420;SDS011;4749;51.398;5.466;2022-10-22T14:18:48;7.40;;;1.50;;
9420;SDS011;4749;51.398;5.466;2022-10-22T14:21:16;7.57;;;1.30;;
9420;SDS011;4749;51.398;5.466;2022-10-22T14:23:45;5.18;;;1.30;;
9420;SDS011;4749;51.398;5.466;2022-10-22T14:26:24;6.32;;;1.13;;
9420;SDS011;4749;51.398;5.466;2022-10-22T14:28:55;5.43;;;1.17;;
9420;SDS011;4749;51.398;5.466;2022-10-22T14:31:36;4.43;;;1.60;;
9420;SDS011;4749;51.398;5.466;2022-10-22T14:34:10;6.40;;;1.90;;
9420;SDS011;4749;51.398;5.466;2022-10-22T14:36:40;6.55;;;1.48;;
9420;SDS011;4749;51.398;5.466;2022-10-22T14:39:09;6.38;;;1.80;;
9420;SDS011;4749;51.398;5.466;2022-10-22T14:41:38;7.75;;;1.75;;
9420;SDS011;4749;51.398;5.466;2022-10-22T14:44:07;4.18;;;1.50;;
9420;SDS011;4749;51.398;5.466;2022-10-22T14:46:39;6.30;;;1.20;;
9420;SDS011;4749;51.398;5.466;2022-10-22T14:49:09;8.68;;;1.52;;
9420;SDS011;4749;51.398;5.466;2022-10-22T14:51:36;5.22;;;1.30;;
9420;SDS011;4749;51.398;5.466;2022-10-22T14:54:04;3.70;;;1.30;;
9420;SDS011;4749;51.398;5.466;2022-10-22T14:56:31;6.88;;;1.35;;
9420;SDS011;4749;51.398;5.466;2022-10-22T14:58:59;3.72;;;1.08;;
9420;SDS011;4749;51.398;5.466;2022-10-22T15:01:26;3.83;;;1.20;;
9420;SDS011;4749;51.398;5.466;2022-10-22T15:03:53;5.90;;;1.45;;
9420;SDS011;4749;51.398;5.466;2022-10-22T15:06:20;6.07;;;1.17;;
9420;SDS011;4749;51.398;5.466;2022-10-22T15:08:47;5.28;;;1.20;;
9420;SDS011;4749;51.398;5.466;2022-10-22T15:11:14;7.28;;;1.63;;
9420;SDS011;4749;51.398;5.466;2022-10-22T15:13:42;8.40;;;1.75;;
9420;SDS011;4749;51.398;5.466;2022-10-22T15:16:10;4.35;;;1.40;;
9420;SDS011;4749;51.398;5.466;2022-10-22T15:18:40;4.18;;;1.40;;
9420;SDS011;4749;51.398;5.466;2022-10-22T15:21:10;4.43;;;1.55;;
9420;SDS011;4749;51.398;5.466;2022-10-22T15:23:44;6.65;;;1.60;;
9420;SDS011;4749;51.398;5.466;2022-10-22T15:26:12;4.47;;;1.42;;
9420;SDS011;4749;51.398;5.466;2022-10-22T15:28:40;4.53;;;1.48;;
9420;SDS011;4749;51.398;5.466;2022-10-22T15:31:10;5.57;;;1.30;;
9420;SDS011;4749;51.398;5.466;2022-10-22T15:33:40;8.35;;;1.38;;
9420;SDS011;4749;51.398;5.466;2022-10-22T15:36:12;5.88;;;1.83;;
9420;SDS011;4749;51.398;5.466;2022-10-22T15:38:41;10.38;;;2.28;;
9420;SDS011;4749;51.398;5.466;2022-10-22T15:41:09;6.65;;;1.80;;
9420;SDS011;4749;51.398;5.466;2022-10-22T15:43:37;10.45;;;1.50;;
9420;SDS011;4749;51.398;5.466;2022-10-22T15:46:13;5.18;;;1.63;;
9420;SDS011;4749;51.398;5.466;2022-10-22T15:48:43;6.03;;;1.98;;
9420;SDS011;4749;51.398;5.466;2022-10-22T15:51:11;6.97;;;1.70;;
9420;SDS011;4749;51.398;5.466;2022-10-22T15:53:41;6.78;;;1.80;;
9420;SDS011;4749;51.398;5.466;2022-10-22T15:56:09;5.32;;;1.30;;
9420;SDS011;4749;51.398;5.466;2022-10-22T15:58:37;6.50;;;1.58;;
9420;SDS011;4749;51.398;5.466;2022-10-22T16:01:05;5.70;;;1.67;;
9420;SDS011;4749;51.398;5.466;2022-10-22T16:03:36;4.95;;;1.70;;
9420;SDS011;4749;51.398;5.466;2022-10-22T16:06:05;5.90;;;1.52;;
9420;SDS011;4749;51.398;5.466;2022-10-22T16:08:35;10.95;;;2.15;;
9420;SDS011;4749;51.398;5.466;2022-10-22T16:11:03;6.15;;;1.55;;
9420;SDS011;4749;51.398;5.466;2022-10-22T16:13:31;6.60;;;1.63;;
9420;SDS011;4749;51.398;5.466;2022-10-22T16:15:58;6.15;;;1.77;;
9420;SDS011;4749;51.398;5.466;2022-10-22T16:18:32;6.93;;;1.90;;
9420;SDS011;4749;51.398;5.466;2022-10-22T16:20:59;6.10;;;1.83;;
9420;SDS011;4749;51.398;5.466;2022-10-22T16:23:27;6.38;;;1.75;;
9420;SDS011;4749;51.398;5.466;2022-10-22T16:25:54;8.00;;;1.70;;
9420;SDS011;4749;51.398;5.466;2022-10-22T16:28:22;6.95;;;1.70;;
9420;SDS011;4749;51.398;5.466;2022-10-22T16:30:49;4.72;;;1.38;;
9420;SDS011;4749;51.398;5.466;2022-10-22T16:33:16;7.22;;;1.58;;
9420;SDS011;4749;51.398;5.466;2022-10-22T16:35:44;7.32;;;1.75;;
9420;SDS011;4749;51.398;5.466;2022-10-22T16:38:13;10.68;;;2.25;;
9420;SDS011;4749;51.398;5.466;2022-10-22T16:40:40;8.10;;;3.65;;
9420;SDS011;4749;51.398;5.466;2022-10-22T16:43:07;7.72;;;3.47;;
9420;SDS011;4749;51.398;5.466;2022-10-22T16:45:34;10.55;;;4.63;;
9420;SDS011;4749;51.398;5.466;2022-10-22T16:48:03;8.93;;;4.00;;
9420;SDS011;4749;51.398;5.466;2022-10-22T16:50:30;13.20;;;4.25;;
9420;SDS011;4749;51.398;5.466;2022-10-22T16:52:57;11.45;;;4.20;;
9420;SDS011;4749;51.398;5.466;2022-10-22T16:55:25;7.22;;;3.85;;
9420;SDS011;4749;51.398;5.466;2022-10-22T16:57:52;11.00;;;4.07;;
9420;SDS011;4749;51.398;5.466;2022-10-22T17:00:19;11.52;;;4.80;;
9420;SDS011;4749;51.398;5.466;2022-10-22T17:02:51;9.55;;;4.35;;
9420;SDS011;4749;51.398;5.466;2022-10-22T17:05:19;14.13;;;5.03;;
9420;SDS011;4749;51.398;5.466;2022-10-22T17:07:47;25.52;;;9.90;;
9420;SDS011;4749;51.398;5.466;2022-10-22T17:10:15;18.38;;;11.10;;
9420;SDS011;4749;51.398;5.466;2022-10-22T17:12:45;32.17;;;15.30;;
9420;SDS011;4749;51.398;5.466;2022-10-22T17:15:13;26.85;;;13.98;;
9420;SDS011;4749;51.398;5.466;2022-10-22T17:17:41;23.48;;;12.98;;
9420;SDS011;4749;51.398;5.466;2022-10-22T17:20:09;27.33;;;13.10;;
9420;SDS011;4749;51.398;5.466;2022-10-22T17:22:37;21.88;;;11.00;;
9420;SDS011;4749;51.398;5.466;2022-10-22T17:25:12;19.42;;;9.75;;